Time;durP1;ratioP1;P1;durP2;ratioP2;P2;SDS_P1;SDS_P2;PMS_P1;PMS_P2;Temp;Humidity;BMP_temperature;BMP_pressure;BME280_temperature;BME280_humidity;BME280_pressure;Samples;Min_cycle;Max_cycle;Signal;HPM_P1;HPM_P2
2023/09/10 06:56:15;;;;;;;30.83;27.60;;;;;;;20.35;100.00;101544.16;5066980;28;20408;-70
2023/09/10 06:58:40;;;;;;;32.92;27.88;;;;;;;20.39;100.00;101544.41;5088334;28;20036;-69
2023/09/10 07:01:06;;;;;;;32.08;27.35;;;;;;;20.47;100.00;101548.53;5076862;28;20638;-70
2023/09/10 07:03:33;;;;;;;29.27;26.08;;;;;;;20.45;100.00;101553.50;5068027;28;20028;-67
2023/09/10 07:05:58;;;;;;;28.73;24.98;;;;;;;20.60;100.00;101555.41;5069741;28;20024;-72
2023/09/10 07:08:24;;;;;;;27.98;24.73;;;;;;;20.69;100.00;101551.84;5070108;28;20444;-70
2023/09/10 07:10:49;;;;;;;25.13;22.52;;;;;;;20.75;100.00;101558.19;5060672;28;20436;-70
2023/09/10 07:13:16;;;;;;;25.65;22.75;;;;;;;20.83;100.00;101560.38;5051632;28;20029;-70
2023/09/10 07:15:41;;;;;;;25.13;22.42;;;;;;;20.90;100.00;101554.59;5049612;28;20068;-69
2023/09/10 07:18:07;;;;;;;25.05;21.65;;;;;;;20.99;100.00;101552.94;5053602;28;20060;-68
2023/09/10 07:20:32;;;;;;;25.02;20.55;;;;;;;21.05;100.00;101557.31;5069127;28;20352;-70
2023/09/10 07:22:58;;;;;;;26.25;19.55;;;;;;;21.12;100.00;101557.03;5070184;28;20046;-71
2023/09/10 07:25:23;;;;;;;23.48;19.67;;;;;;;21.18;100.00;101544.06;5089436;28;20036;-69
2023/09/10 07:27:49;;;;;;;21.23;18.85;;;;;;;21.33;100.00;101554.19;5089013;28;20080;-70
2023/09/10 07:30:14;;;;;;;26.08;18.60;;;;;;;21.39;100.00;101551.16;5079017;28;20368;-70
2023/09/10 07:32:41;;;;;;;19.65;17.55;;;;;;;21.46;100.00;101550.03;5048937;28;20064;-68
2023/09/10 07:35:07;;;;;;;23.30;17.38;;;;;;;21.56;100.00;101550.03;5066644;28;20361;-71
2023/09/10 07:37:32;;;;;;;22.75;16.13;;;;;;;21.66;100.00;101549.97;5065083;28;20028;-71
2023/09/10 07:39:58;;;;;;;22.52;15.90;;;;;;;21.77;100.00;101542.50;5050865;28;20020;-72
2023/09/10 07:42:23;;;;;;;20.83;15.88;;;;;;;21.81;100.00;101551.81;5068714;28;20065;-73
2023/09/10 07:44:48;;;;;;;22.90;14.70;;;;;;;21.89;100.00;101554.00;5057182;28;20025;-69
2023/09/10 07:47:14;;;;;;;20.27;13.90;;;;;;;21.96;100.00;101548.16;5048930;28;20106;-69
2023/09/10 07:49:39;;;;;;;22.42;13.45;;;;;;;22.04;100.00;101544.81;5048763;28;20025;-71
2023/09/10 07:52:04;;;;;;;20.40;14.10;;;;;;;22.11;100.00;101553.56;5047460;28;20048;-73
2023/09/10 07:54:31;;;;;;;21.00;13.48;;;;;;;22.16;100.00;101554.63;5048696;28;20045;-71
2023/09/10 07:56:56;;;;;;;18.25;12.52;;;;;;;22.22;100.00;101556.25;5048131;28;20254;-68
2023/09/10 07:59:21;;;;;;;18.80;12.52;;;;;;;22.23;100.00;101563.41;5047340;28;20456;-69
2023/09/10 08:01:47;;;;;;;19.80;12.10;;;;;;;22.32;100.00;101561.72;5046615;28;20032;-69
2023/09/10 08:04:12;;;;;;;18.52;11.80;;;;;;;22.42;100.00;101563.56;5048941;28;20448;-71
2023/09/10 08:06:38;;;;;;;18.30;11.45;;;;;;;22.43;100.00;101562.47;5040842;28;20052;-67
2023/09/10 08:09:05;;;;;;;16.35;10.75;;;;;;;22.62;100.00;101571.69;5035231;28;20112;-67
2023/09/10 08:11:30;;;;;;;16.10;10.38;;;;;;;22.74;100.00;101576.81;5035395;28;20366;-66
2023/09/10 08:13:55;;;;;;;18.65;10.65;;;;;;;22.70;100.00;101578.50;5034522;28;20028;-67
2023/09/10 08:16:21;;;;;;;16.50;10.32;;;;;;;22.81;100.00;101574.56;5035282;28;20028;-67
2023/09/10 08:18:46;;;;;;;18.88;9.75;;;;;;;22.90;100.00;101571.16;5034003;28;20453;-68
2023/09/10 08:21:11;;;;;;;17.80;9.48;;;;;;;22.93;100.00;101573.34;5035023;28;20583;-68
2023/09/10 08:23:37;;;;;;;14.85;9.63;;;;;;;22.99;100.00;101564.72;5036216;28;20029;-67
2023/09/10 08:26:02;;;;;;;20.83;8.93;;;;;;;23.15;100.00;101562.63;5058724;28;20025;-69
2023/09/10 08:28:28;;;;;;;16.35;8.82;;;;;;;23.11;100.00;101569.03;5055093;28;20028;-68
2023/09/10 08:30:54;;;;;;;13.40;8.63;;;;;;;23.23;100.00;101563.94;5054664;28;20025;-69
2023/09/10 08:33:21;;;;;;;20.10;8.48;;;;;;;23.32;100.00;101562.16;5054861;28;20029;-68
2023/09/10 08:35:49;;;;;;;16.15;8.50;;;;;;;23.43;100.00;101568.41;5041369;28;20029;-69
2023/09/10 08:38:15;;;;;;;14.73;7.95;;;;;;;23.39;100.00;101558.25;5034675;28;20160;-70
2023/09/10 08:40:53;;;;;;;12.63;8.23;;;;;;;23.45;100.00;101565.34;5041849;28;20021;-67
2023/09/10 08:43:23;;;;;;;17.13;8.48;;;;;;;23.53;100.00;101564.69;5044748;28;20020;-69
2023/09/10 08:45:49;;;;;;;18.15;8.18;;;;;;;23.58;100.00;101563.81;5045006;28;20025;-68
2023/09/10 08:48:18;;;;;;;15.13;8.25;;;;;;;23.67;100.00;101564.78;5040663;28;20037;-68
2023/09/10 08:50:45;;;;;;;16.27;7.45;;;;;;;23.79;100.00;101567.13;5040673;28;20025;-69
2023/09/10 08:53:13;;;;;;;15.38;8.15;;;;;;;23.83;100.00;101566.22;5034400;28;20053;-70
2023/09/10 08:55:41;;;;;;;12.40;7.15;;;;;;;23.92;100.00;101565.59;5034646;28;20103;-69
2023/09/10 08:58:09;;;;;;;13.85;7.13;;;;;;;24.11;100.00;101566.44;5041994;28;20025;-69
2023/09/10 09:00:36;;;;;;;12.68;6.72;;;;;;;24.01;100.00;101572.91;5051996;28;20029;-67
2023/09/10 09:03:02;;;;;;;15.20;6.78;;;;;;;24.23;100.00;101580.63;5053637;28;20116;-68
2023/09/10 09:05:29;;;;;;;12.25;7.35;;;;;;;24.17;100.00;101572.69;5034374;28;20025;-68
2023/09/10 09:07:57;;;;;;;14.43;7.45;;;;;;;24.26;100.00;101570.06;5041885;28;20037;-69
2023/09/10 09:10:25;;;;;;;16.60;7.45;;;;;;;24.38;100.00;101570.41;5037779;28;20583;-70
2023/09/10 09:12:55;;;;;;;17.15;7.13;;;;;;;24.45;100.00;101573.63;5034214;28;20040;-68
2023/09/10 09:15:21;;;;;;;13.07;6.82;;;;;;;24.58;100.00;101567.34;5046387;28;20449;-68
2023/09/10 09:17:46;;;;;;;14.00;6.78;;;;;;;24.59;100.00;101568.16;5039580;28;20090;-69
2023/09/10 09:20:15;;;;;;;12.50;6.50;;;;;;;24.63;100.00;101560.09;5034094;28;20037;-68
2023/09/10 09:22:43;;;;;;;12.77;5.97;;;;;;;24.67;100.00;101561.09;5034002;28;20052;-67
2023/09/10 09:25:09;;;;;;;13.88;6.70;;;;;;;24.66;100.00;101559.50;5037212;28;20465;-68
2023/09/10 09:27:36;;;;;;;17.38;6.25;;;;;;;24.72;100.00;101559.09;5053897;28;20452;-69
2023/09/10 09:30:05;;;;;;;14.98;6.15;;;;;;;24.69;100.00;101553.34;5053645;28;20025;-69
2023/09/10 09:32:33;;;;;;;11.85;5.95;;;;;;;24.83;100.00;101558.91;5053667;28;20475;-68
2023/09/10 09:34:59;;;;;;;11.50;6.15;;;;;;;24.81;100.00;101553.69;5053453;28;20060;-69
2023/09/10 09:37:24;;;;;;;10.77;5.50;;;;;;;24.88;100.00;101556.03;5053551;28;20389;-68
2023/09/10 09:39:50;;;;;;;12.57;5.45;;;;;;;25.01;100.00;101559.97;5048602;28;20032;-67
2023/09/10 09:42:16;;;;;;;12.52;5.97;;;;;;;24.98;100.00;101552.25;5033344;28;20055;-67
2023/09/10 09:44:43;;;;;;;13.95;5.45;;;;;;;25.13;100.00;101543.66;5049014;28;20056;-71
2023/09/10 09:47:12;;;;;;;13.38;5.80;;;;;;;25.20;100.00;101546.00;5050242;28;20029;-69
2023/09/10 09:49:45;;;;;;;14.77;5.70;;;;;;;25.29;100.00;101542.25;5033855;28;20037;-68
2023/09/10 09:52:14;;;;;;;9.38;5.38;;;;;;;25.29;100.00;101544.19;5046780;28;20032;-70
2023/09/10 09:54:39;;;;;;;15.32;5.25;;;;;;;25.39;100.00;101540.41;5047294;28;20049;-69
2023/09/10 09:57:08;;;;;;;11.57;5.45;;;;;;;25.35;100.00;101536.59;5033288;28;20033;-69
2023/09/10 09:59:36;;;;;;;11.23;5.25;;;;;;;25.51;100.00;101546.22;5033376;28;20463;-68
2023/09/10 10:02:03;;;;;;;12.38;4.55;;;;;;;25.58;100.00;101543.88;5030851;28;20465;-70
2023/09/10 10:04:32;;;;;;;10.27;4.88;;;;;;;25.67;100.00;101543.97;5044349;28;20518;-68
2023/09/10 10:06:58;;;;;;;13.32;4.68;;;;;;;25.80;100.00;101537.56;5051605;28;20059;-67
2023/09/10 10:09:32;;;;;;;8.90;4.60;;;;;;;25.82;100.00;101537.25;5053112;28;20060;-70
2023/09/10 10:11:58;;;;;;;10.10;4.40;;;;;;;25.89;100.00;101534.88;5051636;28;20103;-69
2023/09/10 10:14:23;;;;;;;9.57;4.72;;;;;;;25.97;100.00;101536.91;5050753;28;20099;-68
2023/09/10 10:16:49;;;;;;;13.40;4.65;;;;;;;25.93;100.00;101524.78;5052795;28;20025;-69
2023/09/10 10:19:15;;;;;;;14.95;4.35;;;;;;;26.00;100.00;101533.53;5052766;28;20097;-68
2023/09/10 10:21:41;;;;;;;14.10;4.53;;;;;;;26.14;87.93;101529.88;5052950;28;20029;-67
2023/09/10 10:24:08;;;;;;;10.45;4.18;;;;;;;26.12;100.00;101532.97;5052908;28;20131;-70
2023/09/10 10:26:34;;;;;;;9.60;4.47;;;;;;;26.23;99.88;101524.41;5052848;28;20047;-68
2023/09/10 10:29:00;;;;;;;11.32;4.25;;;;;;;26.28;93.75;101518.72;5049298;28;20725;-69
2023/09/10 10:31:32;;;;;;;8.43;4.22;;;;;;;26.40;86.64;101532.84;5032359;28;20037;-70
2023/09/10 10:34:09;;;;;;;14.05;4.30;;;;;;;26.44;91.00;101519.16;5032411;28;20037;-68
2023/09/10 10:37:00;;;;;;;10.48;4.03;;;;;;;26.44;92.92;101525.53;5036644;28;20345;-68
2023/09/10 10:39:37;;;;;;;10.05;4.43;;;;;;;26.45;87.43;101523.56;5052757;28;20032;-67
2023/09/10 10:42:05;;;;;;;15.90;4.72;;;;;;;26.58;86.56;101528.22;5052464;28;20590;-69
2023/09/10 10:44:37;;;;;;;11.10;4.70;;;;;;;26.72;81.52;101521.78;5047611;28;20142;-68
2023/09/10 10:47:22;;;;;;;11.02;4.13;;;;;;;26.74;85.39;101514.78;5031165;28;20151;-67
2023/09/10 10:49:52;;;;;;;12.52;4.82;;;;;;;26.87;79.83;101513.88;5032308;28;20427;-69
2023/09/10 10:52:22;;;;;;;13.20;4.53;;;;;;;26.99;78.97;101516.03;5032428;28;20021;-70
2023/09/10 10:54:51;;;;;;;8.32;4.05;;;;;;;27.16;78.42;101520.00;5032655;28;20041;-68
2023/09/10 10:57:19;;;;;;;14.38;5.10;;;;;;;27.21;77.22;101514.31;5031070;28;20025;-70
2023/09/10 10:59:45;;;;;;;11.25;4.00;;;;;;;27.19;75.04;101511.03;5032268;28;20034;-66
2023/09/10 11:02:13;;;;;;;15.43;3.97;;;;;;;27.26;80.94;101507.78;5037659;28;20025;-67
2023/09/10 11:05:00;;;;;;;13.90;3.83;;;;;;;27.35;86.28;101509.47;5051497;28;20032;-69
2023/09/10 11:07:29;;;;;;;9.43;4.18;;;;;;;27.41;78.67;101504.59;5052482;28;20025;-68
2023/09/10 11:09:59;;;;;;;8.35;4.25;;;;;;;27.43;72.02;101505.06;5052450;28;20029;-67
2023/09/10 11:12:25;;;;;;;12.73;4.00;;;;;;;27.41;73.35;101499.81;5052385;28;20653;-69
2023/09/10 11:14:59;;;;;;;12.20;3.92;;;;;;;27.53;75.76;101506.72;5049872;28;20025;-67
2023/09/10 11:17:29;;;;;;;9.27;3.95;;;;;;;27.54;70.85;101500.03;5050788;28;20116;-67
2023/09/10 11:19:55;;;;;;;11.10;4.03;;;;;;;27.62;72.93;101499.22;5052267;28;20078;-68
2023/09/10 11:22:21;;;;;;;11.18;4.00;;;;;;;27.79;74.24;101498.41;5050724;28;20040;-66
2023/09/10 11:24:59;;;;;;;13.38;3.92;;;;;;;27.97;75.33;101493.69;5052220;28;20021;-67
2023/09/10 11:27:27;;;;;;;13.73;4.00;;;;;;;27.89;70.64;101497.28;5042429;28;20037;-67
2023/09/10 11:30:08;;;;;;;12.55;4.43;;;;;;;27.92;72.42;101502.19;5031864;28;20168;-67
2023/09/10 11:32:34;;;;;;;10.43;3.80;;;;;;;28.02;69.24;101489.91;5049139;28;20037;-68
2023/09/10 11:35:18;;;;;;;11.45;3.95;;;;;;;28.16;72.30;101492.50;5051861;28;20082;-68
2023/09/10 11:37:46;;;;;;;10.10;4.07;;;;;;;28.16;66.51;101495.28;5052131;28;20063;-66
2023/09/10 11:40:12;;;;;;;10.02;3.63;;;;;;;28.25;68.33;101496.94;5051567;28;20029;-66
2023/09/10 11:42:38;;;;;;;10.70;4.05;;;;;;;28.27;69.44;101499.38;5053899;28;20017;-67
2023/09/10 11:45:04;;;;;;;12.05;3.65;;;;;;;28.36;67.02;101504.94;5055630;28;20032;-68
2023/09/10 11:47:29;;;;;;;8.05;3.78;;;;;;;28.52;68.40;101494.91;5036313;28;20045;-69
2023/09/10 11:50:03;;;;;;;14.05;4.18;;;;;;;28.49;67.78;101498.38;5054738;28;20017;-67
2023/09/10 11:52:29;;;;;;;11.15;4.22;;;;;;;28.53;64.47;101492.94;5052387;28;20452;-69
2023/09/10 11:54:56;;;;;;;11.30;3.88;;;;;;;28.52;62.92;101492.13;5042619;28;20048;-69
2023/09/10 11:57:22;;;;;;;13.63;4.22;;;;;;;28.60;65.02;101494.09;5041406;28;20083;-69
2023/09/10 11:59:51;;;;;;;11.18;3.78;;;;;;;28.63;67.50;101487.84;5047237;28;20029;-71
2023/09/10 12:02:20;;;;;;;10.52;3.70;;;;;;;28.79;63.93;101490.91;5038761;28;20037;-68
2023/09/10 12:04:46;;;;;;;9.50;4.00;;;;;;;28.71;62.00;101491.75;5036355;28;20342;-69
2023/09/10 12:07:11;;;;;;;10.38;3.60;;;;;;;28.89;69.67;101494.47;5051995;28;20031;-68
2023/09/10 12:09:37;;;;;;;11.18;4.15;;;;;;;28.95;72.69;101485.59;5042735;28;20021;-67
2023/09/10 12:12:16;;;;;;;13.13;4.53;;;;;;;28.99;64.76;101485.75;5040727;28;20103;-68
2023/09/10 12:14:42;;;;;;;11.25;4.30;;;;;;;29.05;69.70;101489.13;5041239;28;20026;-70
2023/09/10 12:17:07;;;;;;;8.70;3.78;;;;;;;29.09;66.16;101490.91;5043068;28;20029;-72
2023/09/10 12:19:35;;;;;;;11.23;4.13;;;;;;;29.20;68.43;101477.44;5035536;28;20027;-72
2023/09/10 12:22:02;;;;;;;8.80;4.10;;;;;;;29.18;63.04;101485.28;5040191;28;20025;-72
2023/09/10 12:24:27;;;;;;;12.00;4.45;;;;;;;29.16;59.61;101487.63;5034310;28;20025;-68
2023/09/10 12:26:53;;;;;;;10.90;3.88;;;;;;;29.38;66.92;101488.47;5054804;28;20027;-69
2023/09/10 12:29:18;;;;;;;13.30;4.13;;;;;;;29.45;65.87;101478.44;5043505;28;20100;-69
2023/09/10 12:31:44;;;;;;;10.43;4.43;;;;;;;29.48;58.75;101479.72;5048506;28;20148;-69
2023/09/10 12:34:10;;;;;;;10.63;3.60;;;;;;;29.52;58.16;101478.72;5054500;28;20033;-68
2023/09/10 12:36:38;;;;;;;11.20;3.83;;;;;;;29.55;58.86;101484.75;5054882;28;20480;-68
2023/09/10 12:39:24;;;;;;;11.60;3.88;;;;;;;29.55;60.94;101479.16;5054672;28;20074;-69
2023/09/10 12:41:52;;;;;;;16.27;4.55;;;;;;;29.68;63.04;101467.78;5054900;28;20031;-69
2023/09/10 12:44:17;;;;;;;10.20;3.78;;;;;;;29.64;57.67;101474.38;5054478;28;20029;-67
2023/09/10 12:46:43;;;;;;;14.23;3.80;;;;;;;29.73;57.14;101465.91;5042925;28;20105;-67
2023/09/10 12:49:09;;;;;;;15.50;3.90;;;;;;;29.72;60.71;101459.53;5034495;28;20164;-68
2023/09/10 12:51:35;;;;;;;8.40;3.47;;;;;;;29.82;58.45;101461.94;5042349;28;20031;-67
2023/09/10 12:54:01;;;;;;;14.15;3.55;;;;;;;29.85;57.08;101455.66;5053494;28;20021;-68
2023/09/10 12:56:28;;;;;;;13.48;4.05;;;;;;;29.90;58.00;101459.41;5052831;28;20065;-67
2023/09/10 12:58:55;;;;;;;11.65;3.80;;;;;;;29.96;59.25;101449.66;5054472;28;20107;-69
2023/09/10 13:01:25;;;;;;;7.68;3.30;;;;;;;30.01;53.21;101443.84;5046025;28;20029;-66
2023/09/10 13:03:50;;;;;;;14.00;3.83;;;;;;;30.05;52.13;101440.03;5043432;28;20036;-68
2023/09/10 13:06:16;;;;;;;9.18;3.35;;;;;;;29.97;50.43;101438.16;5054119;28;20025;-69
2023/09/10 13:08:41;;;;;;;6.95;3.55;;;;;;;29.99;51.00;101438.63;5054568;28;20082;-68
2023/09/10 13:11:06;;;;;;;15.68;4.20;;;;;;;30.07;58.66;101438.88;5053998;28;20048;-66
2023/09/10 13:13:31;;;;;;;11.35;3.67;;;;;;;30.04;52.96;101443.16;5047498;28;20026;-70
2023/09/10 13:15:57;;;;;;;9.13;3.90;;;;;;;30.07;59.54;101439.69;5032720;28;20068;-73
2023/09/10 13:18:22;;;;;;;14.77;3.70;;;;;;;30.21;56.54;101436.56;5041619;28;20017;-70
2023/09/10 13:20:47;;;;;;;9.48;3.58;;;;;;;30.20;52.63;101444.16;5040305;28;20360;-69
2023/09/10 13:23:13;;;;;;;11.73;3.50;;;;;;;30.26;52.67;101436.38;5053782;28;20017;-67
2023/09/10 13:25:38;;;;;;;8.77;3.40;;;;;;;30.29;54.63;101434.88;5035531;28;20124;-68
2023/09/10 13:28:04;;;;;;;13.60;3.50;;;;;;;30.34;50.80;101429.88;5033720;28;20026;-70
2023/09/10 13:30:29;;;;;;;9.45;3.50;;;;;;;30.28;52.33;101434.03;5048902;28;20271;-69
2023/09/10 13:32:54;;;;;;;9.30;3.60;;;;;;;30.30;54.16;101426.16;5051864;28;20040;-70
2023/09/10 13:35:23;;;;;;;11.15;3.58;;;;;;;30.40;52.01;101433.28;5034658;28;20098;-68
2023/09/10 13:37:49;;;;;;;9.68;3.45;;;;;;;30.37;52.55;101431.97;5050079;28;20029;-70
2023/09/10 13:40:14;;;;;;;10.55;3.90;;;;;;;30.32;52.21;101435.00;5053461;28;20085;-70
2023/09/10 13:42:40;;;;;;;10.23;3.75;;;;;;;30.40;52.98;101428.50;5053656;28;20021;-69
2023/09/10 13:45:06;;;;;;;10.52;3.90;;;;;;;30.43;49.72;101432.59;5052328;28;20021;-72
2023/09/10 13:47:31;;;;;;;8.38;3.42;;;;;;;30.46;50.04;101420.72;5044300;28;20022;-75
2023/09/10 13:49:57;;;;;;;9.50;3.90;;;;;;;30.38;50.00;101428.00;5052489;28;20025;-75
2023/09/10 13:52:22;;;;;;;13.15;4.22;;;;;;;30.41;51.27;101429.34;5053265;28;20143;-69
2023/09/10 13:54:47;;;;;;;13.52;3.85;;;;;;;30.33;49.61;101427.41;5053281;28;20091;-69
2023/09/10 13:57:13;;;;;;;17.48;3.55;;;;;;;30.46;50.95;101422.72;5053536;28;20124;-71
2023/09/10 13:59:38;;;;;;;9.80;3.67;;;;;;;30.52;53.35;101424.09;5053017;28;20364;-69
2023/09/10 14:02:03;;;;;;;10.13;3.70;;;;;;;30.52;49.52;101424.91;5050164;28;20025;-68
2023/09/10 14:04:29;;;;;;;8.95;4.00;;;;;;;30.55;48.56;101427.00;5043329;28;20033;-69
2023/09/10 14:06:55;;;;;;;9.45;3.70;;;;;;;30.60;51.36;101420.38;5051219;28;20029;-69
2023/09/10 14:09:20;;;;;;;10.57;3.92;;;;;;;30.58;53.02;101415.13;5052072;28;20099;-70
2023/09/10 17:09:00;;;;;;;10.88;4.43;;;;;;;28.63;68.07;101318.00;5090040;27;20378;-68
2023/09/10 17:11:26;;;;;;;9.45;3.90;;;;;;;28.67;67.16;101315.38;5089502;28;20382;-69
2023/09/10 18:04:55;;;;;;;12.63;5.35;;;;;;;27.48;93.34;101310.38;5089975;27;20370;-70
2023/09/10 18:07:20;;;;;;;13.63;5.50;;;;;;;27.38;100.00;101319.03;5097311;28;20034;-67
2023/09/10 18:09:47;;;;;;;12.23;5.55;;;;;;;27.24;100.00;101316.41;5110180;28;20028;-67
2023/09/10 18:12:13;;;;;;;13.02;5.60;;;;;;;27.23;100.00;101325.88;5092004;28;20042;-67
2023/09/10 18:14:38;;;;;;;9.25;5.38;;;;;;;27.16;100.00;101326.38;5107052;28;20409;-67
2023/09/10 18:17:04;;;;;;;11.02;5.20;;;;;;;27.05;100.00;101325.88;5069444;28;20029;-67
2023/09/10 18:19:29;;;;;;;8.73;5.72;;;;;;;26.92;100.00;101326.84;5072938;28;20069;-68
2023/09/10 18:21:54;;;;;;;11.07;5.50;;;;;;;26.88;100.00;101335.00;5073270;28;20028;-67
2023/09/10 18:24:20;;;;;;;8.55;5.05;;;;;;;26.78;100.00;101331.72;5087530;28;20032;-68
2023/09/10 18:26:46;;;;;;;10.60;5.07;;;;;;;26.67;100.00;101337.56;5088316;28;20086;-67
2023/09/10 18:29:11;;;;;;;10.10;5.20;;;;;;;26.55;100.00;101333.75;5077922;28;20028;-68
2023/09/10 18:31:36;;;;;;;10.75;5.72;;;;;;;26.52;100.00;101329.66;5088825;28;20491;-68
2023/09/10 18:34:02;;;;;;;12.23;5.30;;;;;;;26.43;100.00;101326.06;5078516;28;20113;-67
2023/09/10 18:36:27;;;;;;;11.48;5.97;;;;;;;26.36;100.00;101326.53;5051154;28;20032;-66
2023/09/10 18:38:53;;;;;;;11.77;5.93;;;;;;;26.28;100.00;101336.44;5069260;28;20439;-70
2023/09/10 18:41:20;;;;;;;11.32;6.25;;;;;;;26.23;100.00;101324.69;5069619;28;20541;-68
2023/09/10 18:43:45;;;;;;;14.52;6.30;;;;;;;26.13;100.00;101326.59;5068855;28;20033;-70
2023/09/10 18:46:10;;;;;;;12.45;6.15;;;;;;;26.06;100.00;101330.94;5068542;28;20070;-67
2023/09/10 18:48:35;;;;;;;13.43;6.35;;;;;;;25.96;100.00;101327.28;5089157;28;20029;-69
2023/09/10 18:51:03;;;;;;;13.00;6.57;;;;;;;25.97;100.00;101325.34;5089305;28;20024;-67
2023/09/10 18:53:28;;;;;;;13.45;6.85;;;;;;;25.90;100.00;101330.53;5089014;28;20085;-69
2023/09/10 18:55:54;;;;;;;13.05;6.10;;;;;;;25.85;100.00;101323.16;5088925;28;20099;-67
2023/09/10 18:58:23;;;;;;;14.63;6.75;;;;;;;25.72;100.00;101324.88;5090269;28;20147;-67
2023/09/10 19:00:52;;;;;;;17.88;6.38;;;;;;;25.71;100.00;101327.94;5068241;28;20016;-69
2023/09/10 19:03:17;;;;;;;13.65;6.30;;;;;;;25.71;100.00;101333.50;5087804;28;20135;-72
2023/09/10 19:05:43;;;;;;;10.82;6.10;;;;;;;25.65;100.00;101325.31;5077881;28;20165;-70
2023/09/10 19:08:09;;;;;;;10.27;6.15;;;;;;;25.63;100.00;101338.66;5070694;28;20028;-69
2023/09/10 19:10:35;;;;;;;11.35;5.97;;;;;;;25.67;100.00;101338.06;5088624;28;20111;-67
2023/09/10 19:13:00;;;;;;;11.35;5.95;;;;;;;25.57;100.00;101339.13;5079682;28;20048;-67
2023/09/10 19:15:25;;;;;;;13.63;6.30;;;;;;;25.51;100.00;101340.38;5063768;28;20502;-69
2023/09/10 19:17:53;;;;;;;11.00;6.05;;;;;;;25.50;100.00;101334.03;5073989;28;20422;-67
2023/09/10 19:20:18;;;;;;;10.15;6.63;;;;;;;25.49;100.00;101332.38;5069874;28;20483;-68
2023/09/10 19:22:44;;;;;;;10.85;5.95;;;;;;;25.43;100.00;101330.88;5074886;28;20032;-68
2023/09/10 19:25:09;;;;;;;10.93;6.05;;;;;;;25.39;100.00;101338.16;5073998;28;20436;-66
2023/09/10 19:27:34;;;;;;;10.82;6.13;;;;;;;25.40;100.00;101339.81;5061490;28;20437;-67
2023/09/10 19:30:00;;;;;;;15.30;6.13;;;;;;;25.42;100.00;101332.00;5037157;28;20031;-67
2023/09/10 19:32:25;;;;;;;13.20;6.32;;;;;;;25.37;100.00;101334.91;5059971;28;20035;-66
2023/09/10 19:34:50;;;;;;;13.45;6.43;;;;;;;25.42;100.00;101332.81;5074703;28;20105;-67
2023/09/10 19:37:21;;;;;;;11.77;6.60;;;;;;;25.38;100.00;101329.03;5074093;28;20063;-66
2023/09/10 19:39:46;;;;;;;10.80;5.70;;;;;;;25.45;100.00;101331.34;5066566;28;20055;-68
2023/09/10 19:42:11;;;;;;;12.80;6.38;;;;;;;25.45;100.00;101337.75;5074818;28;20298;-70
2023/09/10 19:44:37;;;;;;;13.43;6.13;;;;;;;25.45;100.00;101331.34;5073205;28;20090;-69
2023/09/10 19:47:03;;;;;;;12.60;6.32;;;;;;;25.38;100.00;101328.19;5068364;28;20513;-69
2023/09/10 19:49:28;;;;;;;11.10;6.30;;;;;;;25.39;100.00;101321.53;5059596;28;20094;-65
2023/09/10 19:51:55;;;;;;;11.15;6.07;;;;;;;25.32;100.00;101333.06;5082863;28;20488;-67
2023/09/10 19:54:20;;;;;;;13.65;6.47;;;;;;;25.34;100.00;101325.25;5075533;28;20032;-67
2023/09/10 19:56:45;;;;;;;13.15;6.55;;;;;;;25.35;100.00;101318.59;5060391;28;20070;-66
2023/09/10 19:59:12;;;;;;;11.40;6.30;;;;;;;25.29;100.00;101328.13;5036538;28;20029;-66
2023/09/10 20:01:41;;;;;;;14.50;6.43;;;;;;;25.33;100.00;101331.91;5060798;28;20039;-67
2023/09/10 20:04:07;;;;;;;15.15;6.05;;;;;;;25.35;100.00;101331.59;5072041;28;20049;-66
2023/09/10 20:06:36;;;;;;;15.93;6.30;;;;;;;25.26;100.00;101335.09;5071923;28;20392;-68
2023/09/10 20:09:03;;;;;;;11.45;5.90;;;;;;;25.24;100.00;101331.84;5074420;28;20531;-67
2023/09/10 20:11:29;;;;;;;13.57;6.15;;;;;;;25.26;100.00;101329.56;5056305;28;20032;-66
2023/09/10 20:13:56;;;;;;;14.27;5.95;;;;;;;25.24;100.00;101328.22;5070587;28;20040;-65
2023/09/10 20:16:21;;;;;;;13.35;5.90;;;;;;;25.14;100.00;101326.53;5055054;28;20025;-66
2023/09/10 20:18:47;;;;;;;9.70;5.68;;;;;;;25.09;100.00;101326.63;5054146;28;20040;-65
2023/09/10 20:21:12;;;;;;;12.07;5.47;;;;;;;25.11;100.00;101327.97;5054037;28;20043;-67
2023/09/10 20:23:38;;;;;;;12.18;5.65;;;;;;;25.14;100.00;101323.75;5053737;28;20068;-65
2023/09/10 20:26:05;;;;;;;12.43;6.32;;;;;;;25.08;100.00;101325.00;5053408;28;20036;-66
2023/09/10 20:28:30;;;;;;;10.82;6.00;;;;;;;25.06;100.00;101318.94;5053559;28;20032;-68
2023/09/10 20:30:55;;;;;;;14.40;6.22;;;;;;;25.09;100.00;101321.94;5065584;28;20047;-66
2023/09/10 20:33:21;;;;;;;11.32;5.97;;;;;;;25.09;100.00;101318.31;5054826;28;20047;-67
2023/09/10 20:35:46;;;;;;;16.15;6.97;;;;;;;25.06;100.00;101313.41;5053539;28;20033;-68
2023/09/10 20:38:12;;;;;;;16.20;6.80;;;;;;;25.04;100.00;101315.69;5035807;28;20056;-68
2023/09/10 20:40:37;;;;;;;12.55;7.15;;;;;;;25.02;100.00;101306.88;5053492;28;20368;-67
2023/09/10 20:43:04;;;;;;;14.93;7.53;;;;;;;25.03;100.00;101311.28;5053586;28;20028;-68
2023/09/10 20:45:29;;;;;;;15.27;7.60;;;;;;;25.02;100.00;101310.47;5053616;28;20110;-67
2023/09/10 20:47:55;;;;;;;20.38;8.70;;;;;;;24.96;100.00;101306.19;5070565;28;20471;-69
2023/09/10 20:50:20;;;;;;;16.17;9.02;;;;;;;24.98;100.00;101308.63;5073139;28;20158;-67
2023/09/10 20:52:50;;;;;;;16.67;9.70;;;;;;;24.94;100.00;101302.88;5066782;28;20040;-68
2023/09/10 20:55:16;;;;;;;16.98;10.70;;;;;;;24.92;100.00;101303.19;5053473;28;20021;-70
2023/09/10 20:57:42;;;;;;;21.88;11.82;;;;;;;24.87;100.00;101303.31;5058965;28;20028;-70
2023/09/10 21:00:09;;;;;;;18.92;10.95;;;;;;;24.87;100.00;101310.81;5069181;28;20040;-68
2023/09/10 21:02:34;;;;;;;17.15;10.38;;;;;;;24.83;100.00;101305.06;5049815;28;20113;-68
2023/09/10 21:05:00;;;;;;;15.98;10.48;;;;;;;24.82;100.00;101308.97;5053169;28;20112;-68
2023/09/10 21:07:26;;;;;;;15.45;9.63;;;;;;;24.75;100.00;101303.84;5035297;28;20086;-68
2023/09/10 21:09:58;;;;;;;12.57;8.65;;;;;;;24.67;100.00;101306.53;5052893;28;20029;-69
2023/09/10 21:12:24;;;;;;;10.63;7.90;;;;;;;24.74;100.00;101306.94;5052852;28;20051;-68
2023/09/10 21:14:49;;;;;;;16.98;8.25;;;;;;;24.74;100.00;101302.22;5057924;28;20464;-68
2023/09/10 21:17:15;;;;;;;10.98;7.43;;;;;;;24.76;100.00;101304.69;5070770;28;20047;-67
2023/09/10 21:19:41;;;;;;;19.52;7.53;;;;;;;24.63;100.00;101305.53;5072705;28;20071;-69
2023/09/10 21:22:06;;;;;;;21.80;7.72;;;;;;;24.63;100.00;101305.53;5054945;28;20082;-68
2023/09/10 21:24:32;;;;;;;14.65;7.53;;;;;;;24.63;100.00;101300.81;5072862;28;20074;-72
2023/09/10 21:26:58;;;;;;;11.02;7.32;;;;;;;24.56;100.00;101300.38;5054743;28;20040;-71
2023/09/10 21:29:23;;;;;;;18.75;7.38;;;;;;;24.59;100.00;101300.63;5072846;28;20029;-73
2023/09/10 21:31:49;;;;;;;10.13;6.10;;;;;;;24.61;100.00;101302.22;5068825;28;20033;-75
2023/09/10 21:34:14;;;;;;;11.07;6.30;;;;;;;24.56;100.00;101286.53;5052680;28;20115;-73
2023/09/10 21:36:40;;;;;;;14.10;6.28;;;;;;;24.48;100.00;101296.38;5034595;28;20036;-73
2023/09/10 21:39:05;;;;;;;14.25;6.20;;;;;;;24.44;100.00;101287.06;5034606;28;20579;-71
2023/09/10 21:41:32;;;;;;;10.73;6.15;;;;;;;24.50;100.00;101285.81;5034747;28;20456;-74
2023/09/10 21:43:57;;;;;;;12.85;6.70;;;;;;;24.52;100.00;101282.75;5052467;28;20028;-74
2023/09/10 21:46:23;;;;;;;14.40;6.10;;;;;;;24.52;100.00;101280.81;5061556;28;20037;-73
2023/09/10 21:48:48;;;;;;;14.40;5.95;;;;;;;24.51;100.00;101281.94;5072396;28;20029;-71
2023/09/10 21:51:13;;;;;;;18.58;6.38;;;;;;;24.48;100.00;101277.00;5049885;28;20036;-71
2023/09/10 21:53:39;;;;;;;14.07;6.55;;;;;;;24.50;100.00;101277.50;5052202;28;20031;-71